Time;durP1;ratioP1;P1;durP2;ratioP2;P2;SDS_P1;SDS_P2;PMS_P1;PMS_P2;Temp;Humidity;BMP_temperature;BMP_pressure;BME280_temperature;BME280_humidity;BME280_pressure;Samples;Min_cycle;Max_cycle;Signal;HPM_P1;HPM_P2
2022/01/21 00:01:15;;;;;;;54.20;27.48;;;;;;;;;;5054945;28;20352;-75
2022/01/21 00:03:41;;;;;;;48.75;25.92;;;;;;;;;;5037667;28;20493;-75
2022/01/21 00:06:07;;;;;;;74.05;32.55;;;;;;;;;;5054468;28;20430;-75
2022/01/21 00:08:37;;;;;;;55.22;28.40;;;;;;;;;;5056239;28;20028;-75
2022/01/21 00:11:03;;;;;;;52.67;27.58;;;;;;;;;;5056073;28;20029;-75
2022/01/21 00:13:34;;;;;;;49.40;26.55;;;;;;;;;;5054783;28;20023;-75
2022/01/21 00:16:01;;;;;;;53.75;26.98;;;;;;;;;;5054520;28;20055;-75
2022/01/21 00:18:27;;;;;;;66.15;28.63;;;;;;;;;;5056018;28;20312;-75
2022/01/21 00:31:50;;;;;;;62.78;28.80;;;;;;;;;;5055298;28;20036;-74
2022/01/21 00:34:16;;;;;;;55.35;30.83;;;;;;;;;;5054716;28;20024;-74
2022/01/21 00:36:42;;;;;;;77.05;36.17;;;;;;;;;;5055789;28;20040;-74
2022/01/21 00:39:09;;;;;;;79.40;36.38;;;;;;;;;;5055486;28;20025;-75
2022/01/21 00:41:41;;;;;;;76.30;36.70;;;;;;;;;;5055958;28;20033;-74
2022/01/21 00:44:07;;;;;;;74.28;37.97;;;;;;;;;;5038157;28;20025;-74
2022/01/21 00:46:34;;;;;;;86.35;38.20;;;;;;;;;;5055779;28;20023;-74
2022/01/21 00:49:01;;;;;;;73.38;40.30;;;;;;;;;;5054636;28;20072;-74
2022/01/21 00:51:28;;;;;;;78.70;38.70;;;;;;;;;;5053430;23;20041;-74
2022/01/21 00:53:54;;;;;;;82.32;40.88;;;;;;;;;;5035306;28;20013;-75
2022/01/21 00:56:20;;;;;;;80.80;43.25;;;;;;;;;;5036617;28;20036;-75
2022/01/21 00:58:46;;;;;;;79.30;40.00;;;;;;;;;;5037861;28;20017;-75
2022/01/21 01:01:13;;;;;;;81.45;41.55;;;;;;;;;;5038016;28;20025;-75
2022/01/21 01:03:39;;;;;;;85.88;43.53;;;;;;;;;;5021813;28;20028;-75
2022/01/21 01:06:05;;;;;;;89.43;43.03;;;;;;;;;;5037925;28;20428;-75
2022/01/21 01:08:31;;;;;;;86.15;42.03;;;;;;;;;;5038941;28;20029;-75
2022/01/21 01:21:45;;;;;;;75.68;41.85;;;;;;;;;;5039029;28;20079;-75
2022/01/21 01:29:24;;;;;;;86.50;39.78;;;;;;;;;;5058938;28;20029;-74
2022/01/21 01:31:51;;;;;;;74.32;34.40;;;;;;;;;;5058771;28;20040;-74
2022/01/21 01:34:17;;;;;;;84.95;40.58;;;;;;;;;;5040968;28;20021;-75
2022/01/21 01:36:45;;;;;;;91.70;45.20;;;;;;;;;;5033225;23;20076;-74
2022/01/21 01:42:13;;;;;;;99.47;49.63;;;;;;;;;;5038251;28;20029;-74
2022/01/21 01:50:24;;;;;;;114.32;60.67;;;;;;;;;;5038227;28;20037;-75
2022/01/21 01:52:51;;;;;;;145.10;69.38;;;;;;;;;;5037093;28;20029;-75
2022/01/21 01:55:18;;;;;;;147.02;68.82;;;;;;;;;;5045456;23;20079;-74
2022/01/21 01:57:45;;;;;;;142.43;65.35;;;;;;;;;;5056304;28;20354;-74
2022/01/21 02:00:13;;;;;;;155.88;76.13;;;;;;;;;;5058677;28;20017;-75
2022/01/21 02:02:40;;;;;;;149.38;73.30;;;;;;;;;;5044312;23;20044;-74
2022/01/21 02:05:06;;;;;;;70.32;32.20;;;;;;;;;;5036610;28;20431;-74
2022/01/21 02:07:33;;;;;;;54.75;28.42;;;;;;;;;;5037434;28;20025;-75
2022/01/21 02:09:59;;;;;;;55.80;27.48;;;;;;;;;;5043637;23;20047;-74
2022/01/21 02:12:25;;;;;;;77.93;36.05;;;;;;;;;;5056434;28;20025;-75
2022/01/21 02:14:54;;;;;;;74.93;38.75;;;;;;;;;;5063618;23;20049;-74
2022/01/21 02:22:44;;;;;;;111.22;51.85;;;;;;;;;;5070510;22;20052;-74
2022/01/21 02:25:18;;;;;;;101.53;52.17;;;;;;;;;;5076496;28;20442;-75
2022/01/21 02:27:46;;;;;;;137.73;61.72;;;;;;;;;;5077533;28;20389;-75
2022/01/21 02:30:19;;;;;;;142.05;64.63;;;;;;;;;;5076116;28;20032;-75
2022/01/21 02:32:50;;;;;;;155.95;69.90;;;;;;;;;;5076536;28;20017;-75
2022/01/21 02:35:16;;;;;;;;;;;;;;;;;;5076182;28;20422;-74
2022/01/21 02:37:43;;;;;;;187.55;80.53;;;;;;;;;;5076874;28;19958;-75
2022/01/21 02:40:10;;;;;;;190.45;87.57;;;;;;;;;;5076034;28;20415;-75
2022/01/21 02:42:36;;;;;;;178.13;84.55;;;;;;;;;;5076472;28;20023;-75
2022/01/21 02:45:03;;;;;;;171.25;84.38;;;;;;;;;;5075736;28;20457;-76
2022/01/21 02:47:30;;;;;;;194.73;97.57;;;;;;;;;;5075805;28;20024;-76
2022/01/21 02:49:56;;;;;;;225.82;105.57;;;;;;;;;;5075828;28;20047;-76
2022/01/21 02:52:26;;;;;;;215.13;100.53;;;;;;;;;;5076249;28;20024;-76
2022/01/21 02:54:52;;;;;;;209.98;106.88;;;;;;;;;;5075548;28;20251;-76
2022/01/21 02:57:19;;;;;;;201.90;101.97;;;;;;;;;;5075598;28;20070;-76
2022/01/21 02:59:45;;;;;;;213.27;106.35;;;;;;;;;;5075609;28;20062;-76
2022/01/21 03:02:14;;;;;;;199.15;108.25;;;;;;;;;;5075792;28;20036;-76
2022/01/21 03:05:03;;;;;;;231.85;117.18;;;;;;;;;;5075576;28;20024;-77
2022/01/21 03:07:29;;;;;;;212.05;103.20;;;;;;;;;;5075392;28;20024;-76
2022/01/21 03:09:56;;;;;;;197.90;97.10;;;;;;;;;;5074962;28;20135;-76
2022/01/21 03:12:23;;;;;;;212.88;107.40;;;;;;;;;;5075408;28;20020;-76
2022/01/21 03:14:50;;;;;;;196.57;97.35;;;;;;;;;;5075236;28;20036;-76
2022/01/21 03:17:17;;;;;;;211.57;102.63;;;;;;;;;;5075912;28;20205;-76
2022/01/21 03:19:43;;;;;;;207.95;101.45;;;;;;;;;;5075282;28;20103;-77
2022/01/21 03:22:09;;;;;;;217.30;99.18;;;;;;;;;;5076449;28;20086;-77
2022/01/21 03:24:35;;;;;;;204.65;98.97;;;;;;;;;;5075095;28;20074;-77
2022/01/21 03:27:01;;;;;;;212.45;95.20;;;;;;;;;;5074358;28;20106;-76
2022/01/21 03:29:28;;;;;;;183.65;86.28;;;;;;;;;;5076150;28;20044;-77
2022/01/21 03:31:54;;;;;;;182.85;95.50;;;;;;;;;;5075134;28;20438;-77
2022/01/21 03:34:20;;;;;;;170.48;76.55;;;;;;;;;;5074264;28;20114;-76
2022/01/21 03:36:46;;;;;;;149.38;70.28;;;;;;;;;;5074154;28;20354;-76
2022/01/21 03:39:12;;;;;;;141.27;64.55;;;;;;;;;;5076006;28;20028;-76
2022/01/21 03:41:39;;;;;;;131.02;62.10;;;;;;;;;;5075966;28;20016;-76
2022/01/21 03:44:05;;;;;;;139.68;66.25;;;;;;;;;;5074693;28;20021;-76
2022/01/21 03:46:31;;;;;;;211.30;108.50;;;;;;;;;;5076062;28;20111;-76
2022/01/21 03:48:58;;;;;;;227.55;113.38;;;;;;;;;;5074689;28;20020;-76
2022/01/21 03:51:24;;;;;;;175.43;83.60;;;;;;;;;;5074856;28;20033;-76
2022/01/21 03:53:52;;;;;;;152.55;74.07;;;;;;;;;;5075949;28;20104;-76
2022/01/21 03:56:18;;;;;;;142.55;63.63;;;;;;;;;;5074172;28;20028;-76
2022/01/21 03:58:44;;;;;;;113.03;54.05;;;;;;;;;;5073756;28;20021;-76
2022/01/21 04:01:11;;;;;;;93.88;45.65;;;;;;;;;;5073938;28;20400;-76
2022/01/21 04:03:37;;;;;;;86.55;39.22;;;;;;;;;;5074548;28;20315;-76
2022/01/21 04:06:04;;;;;;;89.07;40.67;;;;;;;;;;5074176;28;20398;-76
2022/01/21 04:08:31;;;;;;;86.13;43.55;;;;;;;;;;5074743;28;20361;-76
2022/01/21 04:10:57;;;;;;;93.97;45.63;;;;;;;;;;5073686;28;20423;-76
2022/01/21 04:13:25;;;;;;;84.13;44.33;;;;;;;;;;5074223;28;20323;-76
2022/01/21 04:15:55;;;;;;;83.53;42.40;;;;;;;;;;5073965;28;20027;-76
2022/01/21 04:18:22;;;;;;;88.18;41.63;;;;;;;;;;5075018;28;20024;-76
2022/01/21 04:20:49;;;;;;;86.00;39.10;;;;;;;;;;5073366;28;20017;-76
2022/01/21 04:23:16;;;;;;;99.85;44.10;;;;;;;;;;5075179;28;20078;-76
2022/01/21 04:25:43;;;;;;;92.32;43.95;;;;;;;;;;5073967;28;20021;-76
2022/01/21 04:28:09;;;;;;;90.53;42.78;;;;;;;;;;5073910;28;20020;-76
2022/01/21 04:30:35;;;;;;;84.03;41.45;;;;;;;;;;5074289;28;20039;-75
2022/01/21 04:33:04;;;;;;;71.18;37.97;;;;;;;;;;5078781;28;20062;-75
2022/01/21 04:35:30;;;;;;;105.10;41.65;;;;;;;;;;5077531;28;20028;-76
2022/01/21 04:38:01;;;;;;;87.05;39.72;;;;;;;;;;5078179;28;20073;-76
2022/01/21 04:40:33;;;;;;;;;;;;;;;;;;5077505;28;20464;-75
2022/01/21 04:48:30;;;;;;;100.65;47.50;;;;;;;;;;5078294;28;20024;-74
2022/01/21 04:50:59;;;;;;;94.30;48.30;;;;;;;;;;5077650;28;20040;-74
2022/01/21 04:53:26;;;;;;;107.35;54.83;;;;;;;;;;5078712;28;20016;-74
2022/01/21 04:55:52;;;;;;;120.47;55.60;;;;;;;;;;5077131;28;20090;-74
2022/01/21 04:58:19;;;;;;;116.35;52.75;;;;;;;;;;5077533;28;20043;-74
2022/01/21 05:00:45;;;;;;;102.75;53.05;;;;;;;;;;5077234;28;20029;-73
2022/01/21 05:03:11;;;;;;;104.25;50.78;;;;;;;;;;5077381;28;20357;-74
2022/01/21 05:05:38;;;;;;;115.82;57.28;;;;;;;;;;5061013;28;20036;-73
2022/01/21 05:08:07;;;;;;;112.68;58.00;;;;;;;;;;5077005;28;20023;-73
2022/01/21 05:10:35;;;;;;;114.50;60.88;;;;;;;;;;5078660;28;20039;-73
2022/01/21 05:13:02;;;;;;;142.20;66.55;;;;;;;;;;5077125;28;20021;-73
2022/01/21 05:15:59;;;;;;;142.02;69.78;;;;;;;;;;5076917;28;20054;-73
2022/01/21 05:18:25;;;;;;;135.15;71.10;;;;;;;;;;5077085;22;20337;-73
2022/01/21 05:20:51;;;;;;;150.05;75.32;;;;;;;;;;5058498;28;20035;-73
2022/01/21 05:23:18;;;;;;;152.15;78.20;;;;;;;;;;5058396;28;20120;-73
2022/01/21 05:25:44;;;;;;;145.98;74.30;;;;;;;;;;5058094;28;20025;-73
2022/01/21 05:28:11;;;;;;;131.10;70.88;;;;;;;;;;5058148;28;20063;-73
2022/01/21 05:30:37;;;;;;;143.40;70.35;;;;;;;;;;5039903;28;20323;-72
2022/01/21 05:33:03;;;;;;;133.00;72.45;;;;;;;;;;5040012;28;20327;-73
2022/01/21 05:35:29;;;;;;;134.05;72.93;;;;;;;;;;5039778;28;20027;-73
2022/01/21 05:37:56;;;;;;;118.20;61.67;;;;;;;;;;5056583;28;20061;-73
2022/01/21 05:40:23;;;;;;;89.80;50.33;;;;;;;;;;5056161;28;20044;-73
2022/01/21 05:42:50;;;;;;;85.13;47.83;;;;;;;;;;5055095;28;20013;-73
2022/01/21 05:48:00;;;;;;;114.57;57.60;;;;;;;;;;5057347;28;20052;-72
2022/01/21 05:50:27;;;;;;;109.13;52.80;;;;;;;;;;5040164;28;20075;-72
2022/01/21 05:52:55;;;;;;;114.60;57.03;;;;;;;;;;5056324;28;20024;-73
2022/01/21 05:55:21;;;;;;;127.90;64.22;;;;;;;;;;5057490;28;20182;-72
2022/01/21 05:57:47;;;;;;;132.45;70.22;;;;;;;;;;5039242;28;20017;-72
2022/01/21 06:00:13;;;;;;;85.18;48.97;;;;;;;;;;5057726;28;20439;-73
2022/01/21 06:02:40;;;;;;;94.90;49.58;;;;;;;;;;5039465;28;20024;-73
2022/01/21 06:05:06;;;;;;;102.18;52.65;;;;;;;;;;5056255;28;20122;-72
2022/01/21 06:07:34;;;;;;;113.13;59.80;;;;;;;;;;5056730;28;20068;-73
2022/01/21 06:10:00;;;;;;;95.00;52.10;;;;;;;;;;5056169;28;20385;-72
2022/01/21 06:12:26;;;;;;;98.03;52.60;;;;;;;;;;5057265;28;20036;-72
2022/01/21 06:14:52;;;;;;;96.85;53.55;;;;;;;;;;5039580;28;20017;-72
2022/01/21 06:17:18;;;;;;;146.23;75.43;;;;;;;;;;5057222;28;20120;-72
2022/01/21 06:19:50;;;;;;;164.32;86.57;;;;;;;;;;5056479;28;20036;-73
2022/01/21 06:22:17;;;;;;;180.27;102.13;;;;;;;;;;5072048;28;20116;-72
2022/01/21 06:24:44;;;;;;;173.35;93.28;;;;;;;;;;5056308;28;20033;-75
2022/01/21 06:27:11;;;;;;;180.05;94.43;;;;;;;;;;5038771;28;20016;-72
2022/01/21 06:29:37;;;;;;;164.43;90.55;;;;;;;;;;5057245;28;20037;-73
2022/01/21 06:32:03;;;;;;;137.77;76.90;;;;;;;;;;5055730;28;20257;-73
2022/01/21 06:34:29;;;;;;;137.40;73.85;;;;;;;;;;5056965;28;20442;-73
2022/01/21 06:36:55;;;;;;;133.60;71.63;;;;;;;;;;5057345;28;20032;-73
2022/01/21 06:39:21;;;;;;;121.97;63.03;;;;;;;;;;5056159;28;20024;-72
2022/01/21 06:41:48;;;;;;;103.03;51.03;;;;;;;;;;5055553;28;20342;-73
2022/01/21 06:44:15;;;;;;;97.28;50.17;;;;;;;;;;5055948;28;20429;-72
2022/01/21 06:46:41;;;;;;;99.38;57.25;;;;;;;;;;5055626;28;20029;-73
2022/01/21 06:49:07;;;;;;;93.38;50.42;;;;;;;;;;5055841;28;20016;-73
2022/01/21 06:51:34;;;;;;;75.00;43.20;;;;;;;;;;5056557;28;20121;-73
2022/01/21 06:54:00;;;;;;;70.13;38.95;;;;;;;;;;5055214;28;20052;-73
2022/01/21 06:56:26;;;;;;;71.75;37.22;;;;;;;;;;5055544;28;20420;-73
2022/01/21 06:58:52;;;;;;;72.22;33.60;;;;;;;;;;5055648;28;20108;-73
2022/01/21 07:01:18;;;;;;;65.53;32.90;;;;;;;;;;5055221;28;20021;-73
2022/01/21 07:03:45;;;;;;;61.15;30.65;;;;;;;;;;5056772;28;20036;-73
2022/01/21 07:06:11;;;;;;;60.78;30.23;;;;;;;;;;5038709;28;20025;-73
2022/01/21 07:08:38;;;;;;;63.10;32.72;;;;;;;;;;5055843;28;20070;-73
2022/01/21 07:11:04;;;;;;;63.60;33.75;;;;;;;;;;5056640;28;20029;-73
2022/01/21 07:13:30;;;;;;;60.50;31.83;;;;;;;;;;5038876;28;20019;-73
2022/01/21 07:15:58;;;;;;;63.35;30.50;;;;;;;;;;5055535;28;20098;-73
2022/01/21 07:18:24;;;;;;;56.33;26.83;;;;;;;;;;5055620;28;20036;-73
2022/01/21 07:20:50;;;;;;;66.90;32.00;;;;;;;;;;5056424;28;20330;-73
2022/01/21 07:23:16;;;;;;;58.35;26.77;;;;;;;;;;5056334;28;20024;-72
2022/01/21 07:25:42;;;;;;;63.40;25.40;;;;;;;;;;5054354;28;20017;-73
2022/01/21 07:28:09;;;;;;;51.78;25.83;;;;;;;;;;5056061;28;20031;-73
2022/01/21 07:30:37;;;;;;;40.50;21.70;;;;;;;;;;5055837;28;20124;-72
2022/01/21 07:33:05;;;;;;;62.55;24.17;;;;;;;;;;5054471;28;20055;-73
2022/01/21 07:35:31;;;;;;;41.30;23.50;;;;;;;;;;5055001;28;20029;-73
2022/01/21 07:37:59;;;;;;;45.22;23.15;;;;;;;;;;5056340;28;20021;-72
2022/01/21 07:40:26;;;;;;;43.72;26.05;;;;;;;;;;5056229;28;20032;-73
2022/01/21 07:42:52;;;;;;;51.80;28.15;;;;;;;;;;5054930;28;20106;-73
2022/01/21 07:45:18;;;;;;;54.95;26.17;;;;;;;;;;5038480;28;20021;-72
2022/01/21 07:47:44;;;;;;;62.22;28.25;;;;;;;;;;5054719;28;20044;-73
2022/01/21 07:50:10;;;;;;;46.78;25.65;;;;;;;;;;5056020;28;20025;-72
2022/01/21 07:52:36;;;;;;;47.72;26.67;;;;;;;;;;5055818;28;20566;-73
2022/01/21 07:55:02;;;;;;;50.92;24.25;;;;;;;;;;5055945;28;20110;-73
2022/01/21 07:57:28;;;;;;;43.67;25.42;;;;;;;;;;5054933;28;20033;-73
2022/01/21 07:59:54;;;;;;;37.65;21.88;;;;;;;;;;5056148;28;20455;-73
2022/01/21 08:02:23;;;;;;;59.08;27.52;;;;;;;;;;5054908;28;20529;-73
2022/01/21 08:04:49;;;;;;;50.00;23.42;;;;;;;;;;5053902;28;20024;-73
2022/01/21 08:07:16;;;;;;;49.67;24.27;;;;;;;;;;5037806;28;20013;-74
2022/01/21 08:09:42;;;;;;;45.20;23.65;;;;;;;;;;5055504;28;20082;-72
2022/01/21 08:12:08;;;;;;;43.17;22.40;;;;;;;;;;5054345;28;20036;-73
2022/01/21 08:14:34;;;;;;;38.30;19.33;;;;;;;;;;5054476;28;20017;-73
2022/01/21 08:17:02;;;;;;;36.30;18.88;;;;;;;;;;5055187;28;20155;-73
2022/01/21 08:19:28;;;;;;;41.90;22.00;;;;;;;;;;5056272;28;20036;-73
2022/01/21 08:21:54;;;;;;;42.30;20.95;;;;;;;;;;5055774;28;20111;-73
2022/01/21 08:24:20;;;;;;;39.50;22.30;;;;;;;;;;5055343;28;20070;-74
2022/01/21 08:26:46;;;;;;;40.75;19.83;;;;;;;;;;5054384;28;20487;-73
2022/01/21 08:29:12;;;;;;;29.83;17.00;;;;;;;;;;5053988;28;20041;-73
2022/01/21 08:31:38;;;;;;;31.05;17.88;;;;;;;;;;5055594;28;20028;-73
2022/01/21 08:34:04;;;;;;;31.13;17.65;;;;;;;;;;5037730;28;20390;-73
2022/01/21 08:36:30;;;;;;;36.40;18.40;;;;;;;;;;5037764;28;20037;-73
2022/01/21 08:38:56;;;;;;;30.50;17.63;;;;;;;;;;5037760;28;20017;-72
2022/01/21 08:41:22;;;;;;;30.30;18.23;;;;;;;;;;5055789;28;20438;-74
2022/01/21 08:43:49;;;;;;;37.25;18.23;;;;;;;;;;5037702;28;20025;-73
2022/01/21 08:46:15;;;;;;;38.58;18.38;;;;;;;;;;5053987;28;20025;-73
2022/01/21 08:48:41;;;;;;;39.03;20.08;;;;;;;;;;5054184;28;20028;-73
2022/01/21 08:51:11;;;;;;;40.70;21.95;;;;;;;;;;5055546;28;20082;-73
2022/01/21 08:53:39;;;;;;;40.33;21.83;;;;;;;;;;5054023;28;20017;-73
2022/01/21 08:56:07;;;;;;;41.17;19.85;;;;;;;;;;5054125;28;20025;-73
2022/01/21 08:58:33;;;;;;;40.53;20.30;;;;;;;;;;5053062;28;20021;-73
2022/01/21 09:00:59;;;;;;;28.58;16.48;;;;;;;;;;5055378;28;20107;-73
2022/01/21 09:03:25;;;;;;;33.95;18.20;;;;;;;;;;5054171;28;20017;-73
2022/01/21 09:05:51;;;;;;;33.08;15.07;;;;;;;;;;5053875;28;20032;-73
2022/01/21 09:08:25;;;;;;;33.75;16.80;;;;;;;;;;5055608;28;20021;-73
2022/01/21 09:10:54;;;;;;;31.15;15.02;;;;;;;;;;5053763;28;20044;-73
2022/01/21 09:13:22;;;;;;;34.55;15.43;;;;;;;;;;5054055;28;20370;-72
2022/01/21 09:15:48;;;;;;;41.70;18.23;;;;;;;;;;5054385;28;20031;-73
2022/01/21 09:18:19;;;;;;;32.33;15.05;;;;;;;;;;5057494;28;20107;-74
2022/01/21 09:20:45;;;;;;;22.90;14.77;;;;;;;;;;5058017;28;20411;-74
2022/01/21 09:23:11;;;;;;;27.45;13.93;;;;;;;;;;5057801;28;20378;-73
2022/01/21 09:25:37;;;;;;;34.65;17.13;;;;;;;;;;5057827;28;20346;-73
2022/01/21 09:28:04;;;;;;;45.63;15.40;;;;;;;;;;5058509;28;20032;-73
2022/01/21 09:30:30;;;;;;;33.45;20.10;;;;;;;;;;5057453;28;20411;-73
2022/01/21 09:32:57;;;;;;;38.05;16.95;;;;;;;;;;5040811;28;20044;-74
2022/01/21 09:35:23;;;;;;;33.58;16.35;;;;;;;;;;5057114;28;20017;-73
2022/01/21 09:37:49;;;;;;;28.25;16.33;;;;;;;;;;5057882;28;20370;-73
2022/01/21 09:40:15;;;;;;;37.80;17.98;;;;;;;;;;5040770;28;20028;-73
2022/01/21 09:42:42;;;;;;;43.70;16.80;;;;;;;;;;5058124;28;20021;-74
2022/01/21 09:45:09;;;;;;;28.23;15.32;;;;;;;;;;5056515;28;20095;-73
2022/01/21 09:47:46;;;;;;;27.77;16.38;;;;;;;;;;5057598;28;20097;-73
2022/01/21 09:50:16;;;;;;;29.15;15.50;;;;;;;;;;5057345;28;20021;-73
2022/01/21 09:52:47;;;;;;;29.08;16.55;;;;;;;;;;5056935;28;20454;-74
2022/01/21 09:55:13;;;;;;;39.60;17.58;;;;;;;;;;5057634;28;20031;-73
2022/01/21 09:57:41;;;;;;;29.30;16.80;;;;;;;;;;5058888;28;20013;-73
2022/01/21 10:00:08;;;;;;;38.95;15.93;;;;;;;;;;5041067;28;20070;-73
2022/01/21 10:02:34;;;;;;;28.58;15.45;;;;;;;;;;5040921;28;20312;-73
2022/01/21 10:05:01;;;;;;;23.40;14.65;;;;;;;;;;5057668;28;20434;-73
2022/01/21 10:07:28;;;;;;;40.25;15.38;;;;;;;;;;5058376;28;20028;-73
2022/01/21 10:09:54;;;;;;;33.95;17.15;;;;;;;;;;5056932;28;20048;-73
2022/01/21 10:12:23;;;;;;;28.92;17.52;;;;;;;;;;5056040;28;20048;-73
2022/01/21 10:14:50;;;;;;;34.42;18.40;;;;;;;;;;5039483;28;20028;-72
2022/01/21 10:17:23;;;;;;;34.83;17.63;;;;;;;;;;5038099;28;20303;-73
2022/01/21 10:20:21;;;;;;;30.20;17.35;;;;;;;;;;5052185;28;20117;-73
2022/01/21 10:23:05;;;;;;;27.13;16.58;;;;;;;;;;5055217;28;20558;-73
2022/01/21 10:26:12;;;;;;;30.40;15.80;;;;;;;;;;5053283;28;20059;-73
2022/01/21 10:28:43;;;;;;;40.80;18.10;;;;;;;;;;5055968;28;20021;-73
2022/01/21 10:31:25;;;;;;;41.22;18.52;;;;;;;;;;5019157;28;20423;-73
2022/01/21 10:34:03;;;;;;;38.67;18.20;;;;;;;;;;5038657;28;20175;-74
2022/01/21 10:36:43;;;;;;;52.45;18.77;;;;;;;;;;5039130;28;20025;-73
2022/01/21 10:39:30;;;;;;;39.08;16.65;;;;;;;;;;5054920;28;20103;-73
2022/01/21 10:42:02;;;;;;;42.85;19.23;;;;;;;;;;5055526;28;20040;-73
2022/01/21 10:45:08;;;;;;;34.45;16.65;;;;;;;;;;5055988;28;20021;-73
2022/01/21 10:47:48;;;;;;;43.58;18.45;;;;;;;;;;5055574;28;20028;-72
2022/01/21 10:50:19;;;;;;;47.55;22.20;;;;;;;;;;5058347;28;20011;-72
2022/01/21 10:52:51;;;;;;;35.63;18.67;;;;;;;;;;5040895;28;20083;-73
2022/01/21 10:55:38;;;;;;;34.63;16.98;;;;;;;;;;5055425;28;20047;-72
2022/01/21 10:58:08;;;;;;;46.50;22.10;;;;;;;;;;5057185;28;20112;-72
2022/01/21 11:00:58;;;;;;;39.15;19.30;;;;;;;;;;5056543;28;20311;-73
2022/01/21 11:04:10;;;;;;;32.58;18.17;;;;;;;;;;5049903;28;20039;-73
2022/01/21 11:06:48;;;;;;;58.15;23.05;;;;;;;;;;5056553;28;20021;-73
2022/01/21 11:09:20;;;;;;;42.50;22.08;;;;;;;;;;5039081;28;20403;-73
2022/01/21 11:11:57;;;;;;;41.38;21.35;;;;;;;;;;5052696;28;20067;-73
2022/01/21 11:14:35;;;;;;;37.40;20.38;;;;;;;;;;5056207;28;20033;-73
2022/01/21 11:17:15;;;;;;;34.45;17.85;;;;;;;;;;5037940;28;20395;-74
2022/01/21 11:20:03;;;;;;;34.95;19.23;;;;;;;;;;5037484;28;20068;-73
2022/01/21 11:22:35;;;;;;;38.75;18.67;;;;;;;;;;5055613;28;20047;-73
2022/01/21 11:25:11;;;;;;;54.30;20.48;;;;;;;;;;5037883;28;20448;-74
2022/01/21 11:27:42;;;;;;;33.80;18.70;;;;;;;;;;5058152;28;20028;-73
2022/01/21 11:30:29;;;;;;;31.08;15.60;;;;;;;;;;5049806;28;20159;-73
2022/01/21 11:33:17;;;;;;;34.83;16.75;;;;;;;;;;5031523;28;20021;-73
2022/01/21 11:35:54;;;;;;;46.72;18.83;;;;;;;;;;5048840;28;20032;-73
2022/01/21 11:38:33;;;;;;;53.47;18.27;;;;;;;;;;5036197;28;20028;-73
2022/01/21 11:40:59;;;;;;;32.53;17.25;;;;;;;;;;5037587;28;20021;-73
2022/01/21 11:43:30;;;;;;;45.22;19.45;;;;;;;;;;5055967;28;20044;-73
2022/01/21 11:49:50;;;;;;;38.22;18.88;;;;;;;;;;5021205;28;20422;-74
2022/01/21 11:52:45;;;;;;;46.05;21.50;;;;;;;;;;5062575;22;20364;-73
2022/01/21 11:55:53;;;;;;;44.30;20.35;;;;;;;;;;5054257;28;20414;-73
2022/01/21 11:58:28;;;;;;;38.67;19.88;;;;;;;;;;5075782;28;20078;-73
2022/01/21 12:01:05;;;;;;;46.88;20.70;;;;;;;;;;5058674;28;20020;-73
2022/01/21 12:03:53;;;;;;;37.97;20.00;;;;;;;;;;5076110;28;20414;-73
2022/01/21 12:06:52;;;;;;;37.90;18.85;;;;;;;;;;5092586;28;20109;-73
2022/01/21 12:09:39;;;;;;;40.95;20.83;;;;;;;;;;5059064;28;20027;-74
2022/01/21 12:12:08;;;;;;;38.72;19.73;;;;;;;;;;5095439;28;20035;-73
2022/01/21 12:14:52;;;;;;;42.42;19.90;;;;;;;;;;5094554;28;20016;-74
2022/01/21 12:17:53;;;;;;;51.17;24.10;;;;;;;;;;5057106;28;20082;-73
2022/01/21 12:20:31;;;;;;;50.92;24.70;;;;;;;;;;5076310;28;20361;-74
2022/01/21 12:23:14;;;;;;;48.72;25.88;;;;;;;;;;5058573;28;20023;-73
2022/01/21 12:26:00;;;;;;;57.80;27.40;;;;;;;;;;5075694;28;20334;-73
2022/01/21 12:28:30;;;;;;;52.75;28.58;;;;;;;;;;5094355;28;20272;-73
2022/01/21 12:31:06;;;;;;;53.20;29.42;;;;;;;;;;5077687;28;20056;-73
2022/01/21 12:36:22;;;;;;;62.88;31.65;;;;;;;;;;5076950;28;20051;-73
2022/01/21 12:45:18;;;;;;;66.10;30.33;;;;;;;;;;5091164;28;20107;-74
2022/01/21 12:48:22;;;;;;;81.03;35.20;;;;;;;;;;5086021;28;20414;-74
2022/01/21 12:50:59;;;;;;;67.30;36.95;;;;;;;;;;5075179;28;20118;-73
2022/01/21 12:53:44;;;;;;;74.45;35.70;;;;;;;;;;5080392;28;20118;-74
2022/01/21 12:56:22;;;;;;;69.53;35.90;;;;;;;;;;5063617;28;20020;-74
2022/01/21 12:59:12;;;;;;;82.22;38.85;;;;;;;;;;5075377;28;20035;-73
2022/01/21 13:01:48;;;;;;;87.45;37.05;;;;;;;;;;5063661;28;20423;-74
2022/01/21 13:04:40;;;;;;;65.53;36.67;;;;;;;;;;5064530;28;20030;-73
2022/01/21 13:07:13;;;;;;;81.82;43.75;;;;;;;;;;5062927;28;20031;-73
2022/01/21 13:10:00;;;;;;;83.15;43.92;;;;;;;;;;5057209;28;20115;-73
2022/01/21 13:13:35;;;;;;;82.43;42.40;;;;;;;;;;5079858;28;20431;-73
2022/01/21 13:15:56;;;;;;;86.15;43.38;;;;;;;;;;5067889;28;20495;-73
2022/01/21 13:18:28;;;;;;;89.82;48.83;;;;;;;;;;5080220;28;20111;-74
2022/01/21 13:21:10;;;;;;;94.65;43.72;;;;;;;;;;5061278;28;20089;-74
2022/01/21 13:24:01;;;;;;;86.30;43.92;;;;;;;;;;5089573;28;20040;-74
2022/01/21 13:27:15;;;;;;;93.95;46.13;;;;;;;;;;5087461;28;20448;-73
2022/01/21 13:30:28;;;;;;;83.68;43.08;;;;;;;;;;5090409;28;20027;-73
2022/01/21 13:33:18;;;;;;;88.07;41.15;;;;;;;;;;5060245;28;20063;-73
2022/01/21 13:36:03;;;;;;;91.82;45.85;;;;;;;;;;5048668;28;20194;-73
2022/01/21 13:38:33;;;;;;;88.15;39.53;;;;;;;;;;5079020;28;20032;-73
2022/01/21 13:41:02;;;;;;;83.35;39.35;;;;;;;;;;5063370;28;20024;-74
2022/01/21 13:43:35;;;;;;;75.07;38.33;;;;;;;;;;5080100;28;20012;-73
2022/01/21 13:46:02;;;;;;;;;;;;;;;;;;5063096;28;20027;-73
2022/01/21 13:48:39;;;;;;;94.13;40.85;;;;;;;;;;5063806;28;19904;-73
2022/01/21 13:54:23;;;;;;;81.63;37.03;;;;;;;;;;5092191;28;20036;-74
2022/01/21 13:57:13;;;;;;;80.80;39.70;;;;;;;;;;5082526;28;20138;-73
2022/01/21 14:00:03;;;;;;;85.13;40.03;;;;;;;;;;5060761;28;20057;-74
2022/01/21 14:03:03;;;;;;;63.65;33.83;;;;;;;;;;5054240;28;20028;-74
2022/01/21 14:05:51;;;;;;;77.25;39.97;;;;;;;;;;5073992;28;20032;-73
2022/01/21 14:08:28;;;;;;;78.53;38.85;;;;;;;;;;5061753;28;20023;-73
2022/01/21 14:11:17;;;;;;;79.10;40.00;;;;;;;;;;5075028;28;20055;-74
2022/01/21 14:14:33;;;;;;;84.22;39.95;;;;;;;;;;5108635;22;20130;-74
2022/01/21 14:17:26;;;;;;;79.40;39.00;;;;;;;;;;5081816;22;20101;-74
2022/01/21 14:20:04;;;;;;;78.22;39.85;;;;;;;;;;5073095;28;20055;-73
2022/01/21 14:22:46;;;;;;;75.78;39.45;;;;;;;;;;5051320;23;20071;-73
2022/01/21 14:25:53;;;;;;;84.25;40.50;;;;;;;;;;5074764;22;20147;-73
2022/01/21 14:28:40;;;;;;;83.25;37.92;;;;;;;;;;5038091;28;20041;-74
2022/01/21 14:31:32;;;;;;;74.03;35.38;;;;;;;;;;5002429;28;20040;-74
2022/01/21 14:34:35;;;;;;;80.07;40.78;;;;;;;;;;5015118;28;20060;-74
2022/01/21 14:37:48;;;;;;;73.85;37.15;;;;;;;;;;5081010;22;20396;-73
2022/01/21 14:40:56;;;;;;;64.78;32.30;;;;;;;;;;5105726;22;20376;-74
2022/01/21 14:44:02;;;;;;;66.90;33.78;;;;;;;;;;5088897;28;20036;-74
2022/01/21 14:47:00;;;;;;;65.03;34.30;;;;;;;;;;5081059;22;20131;-73
2022/01/21 14:50:04;;;;;;;64.50;34.05;;;;;;;;;;5021455;22;20061;-73
2022/01/21 14:52:57;;;;;;;64.95;35.15;;;;;;;;;;5087773;28;20434;-74
2022/01/21 14:58:29;;;;;;;73.68;35.78;;;;;;;;;;5088883;28;20051;-73
2022/01/21 15:01:30;;;;;;;74.93;38.25;;;;;;;;;;5078207;28;20023;-73
2022/01/21 15:06:55;;;;;;;67.78;32.42;;;;;;;;;;5087969;28;20044;-73
2022/01/21 15:09:49;;;;;;;70.65;34.28;;;;;;;;;;5052646;28;20052;-73
2022/01/21 15:15:42;;;;;;;70.03;33.83;;;;;;;;;;5078753;22;20035;-73
2022/01/21 15:18:19;;;;;;;76.28;38.67;;;;;;;;;;5077093;28;20020;-73
2022/01/21 15:21:13;;;;;;;83.13;38.28;;;;;;;;;;5062279;28;20126;-73
2022/01/21 15:23:54;;;;;;;85.10;37.60;;;;;;;;;;5060719;28;20052;-73
2022/01/21 15:26:44;;;;;;;70.50;37.53;;;;;;;;;;5056879;28;20020;-73
2022/01/21 15:29:33;;;;;;;65.97;36.60;;;;;;;;;;5068479;22;20048;-73
2022/01/21 15:32:59;;;;;;;68.93;32.63;;;;;;;;;;5051314;28;20098;-73
2022/01/21 15:35:48;;;;;;;64.95;30.95;;;;;;;;;;5072537;28;20103;-73
2022/01/21 15:38:51;;;;;;;72.30;33.95;;;;;;;;;;5073042;28;20044;-72
2022/01/21 15:41:38;;;;;;;46.03;24.70;;;;;;;;;;5071228;28;20032;-72
2022/01/21 15:44:17;;;;;;;68.70;31.20;;;;;;;;;;5073837;28;20095;-73
2022/01/21 15:46:50;;;;;;;65.45;32.25;;;;;;;;;;5056372;28;20027;-72
2022/01/21 15:49:48;;;;;;;76.28;32.88;;;;;;;;;;5057170;28;20050;-73
2022/01/21 15:53:01;;;;;;;70.57;32.38;;;;;;;;;;5069542;28;20033;-72
2022/01/21 15:56:08;;;;;;;89.53;44.03;;;;;;;;;;5067713;28;20037;-74
2022/01/21 16:04:15;;;;;;;80.60;33.42;;;;;;;;;;5092381;28;20135;-74
2022/01/21 16:09:36;;;;;;;71.05;35.97;;;;;;;;;;5094145;22;20075;-74
2022/01/21 16:12:09;;;;;;;76.95;38.47;;;;;;;;;;5058870;28;20074;-74